sensor_id;sensor_type;location;lat;lon;timestamp;pressure;altitude;pressure_sealevel;temperature;humidity
21594;BME280;10959;51.328;7.322;2022-08-19T00:01:11;98542.53;;;20.95;69.22
21594;BME280;10959;51.328;7.322;2022-08-19T00:03:40;98546.03;;;20.97;69.33
21594;BME280;10959;51.328;7.322;2022-08-19T00:06:06;98548.03;;;20.95;69.17
21594;BME280;10959;51.328;7.322;2022-08-19T00:08:33;98548.03;;;20.95;68.71
21594;BME280;10959;51.328;7.322;2022-08-19T00:10:59;98540.84;;;20.94;69.08
21594;BME280;10959;51.328;7.322;2022-08-19T00:13:26;98552.78;;;20.93;69.33
21594;BME280;10959;51.328;7.322;2022-08-19T00:15:53;98546.47;;;20.92;68.93
21594;BME280;10959;51.328;7.322;2022-08-19T00:18:20;98553.81;;;20.92;68.88
21594;BME280;10959;51.328;7.322;2022-08-19T00:20:48;98546.47;;;20.92;68.88
21594;BME280;10959;51.328;7.322;2022-08-19T00:23:14;98553.81;;;20.92;68.74
21594;BME280;10959;51.328;7.322;2022-08-19T00:25:41;98549.94;;;20.84;69.02
21594;BME280;10959;51.328;7.322;2022-08-19T00:28:07;98551.97;;;20.82;69.08
21594;BME280;10959;51.328;7.322;2022-08-19T00:30:34;98552.97;;;20.81;68.82
21594;BME280;10959;51.328;7.322;2022-08-19T00:33:00;98556.16;;;20.77;69.33
21594;BME280;10959;51.328;7.322;2022-08-19T00:35:27;98551.84;;;20.74;69.29
21594;BME280;10959;51.328;7.322;2022-08-19T00:37:55;98554.72;;;20.73;68.63
21594;BME280;10959;51.328;7.322;2022-08-19T00:40:22;98539.16;;;20.73;69.60
21594;BME280;10959;51.328;7.322;2022-08-19T00:42:48;98542.50;;;20.67;69.64
21594;BME280;10959;51.328;7.322;2022-08-19T00:45:21;98546.50;;;20.63;70.10
21594;BME280;10959;51.328;7.322;2022-08-19T00:47:48;98550.97;;;20.64;69.78
21594;BME280;10959;51.328;7.322;2022-08-19T00:50:17;98543.75;;;20.63;70.02
21594;BME280;10959;51.328;7.322;2022-08-19T00:52:47;98550.22;;;20.62;69.62
21594;BME280;10959;51.328;7.322;2022-08-19T00:55:21;98544.91;;;20.50;70.33
21594;BME280;10959;51.328;7.322;2022-08-19T00:57:54;98534.56;;;20.54;70.17
21594;BME280;10959;51.328;7.322;2022-08-19T01:00:24;98534.84;;;20.61;69.94
21594;BME280;10959;51.328;7.322;2022-08-19T01:02:52;98531.06;;;20.62;70.14
21594;BME280;10959;51.328;7.322;2022-08-19T01:05:21;98533.41;;;20.57;70.53
21594;BME280;10959;51.328;7.322;2022-08-19T01:07:49;98541.63;;;20.57;70.21
21594;BME280;10959;51.328;7.322;2022-08-19T01:10:20;98541.19;;;20.51;69.89
21594;BME280;10959;51.328;7.322;2022-08-19T01:12:48;98539.19;;;20.53;69.80
21594;BME280;10959;51.328;7.322;2022-08-19T01:15:18;98543.78;;;20.53;70.01
21594;BME280;10959;51.328;7.322;2022-08-19T01:17:46;98535.72;;;20.51;70.26
21594;BME280;10959;51.328;7.322;2022-08-19T01:20:16;98537.16;;;20.46;70.49
21594;BME280;10959;51.328;7.322;2022-08-19T01:22:48;98532.13;;;20.41;70.22
21594;BME280;10959;51.328;7.322;2022-08-19T01:25:18;98539.75;;;20.47;70.51
21594;BME280;10959;51.328;7.322;2022-08-19T01:27:49;98539.75;;;20.47;70.08
21594;BME280;10959;51.328;7.322;2022-08-19T01:30:19;98534.13;;;20.39;70.87
21594;BME280;10959;51.328;7.322;2022-08-19T01:32:47;98527.97;;;20.37;70.94
21594;BME280;10959;51.328;7.322;2022-08-19T01:35:14;98535.47;;;20.35;70.91
21594;BME280;10959;51.328;7.322;2022-08-19T01:37:47;98529.41;;;20.31;70.63
21594;BME280;10959;51.328;7.322;2022-08-19T01:40:14;98521.19;;;20.31;70.83
21594;BME280;10959;51.328;7.322;2022-08-19T01:42:41;98519.63;;;20.29;70.85
21594;BME280;10959;51.328;7.322;2022-08-19T01:45:08;98525.97;;;20.29;71.49
21594;BME280;10959;51.328;7.322;2022-08-19T01:47:35;98517.91;;;20.28;70.96
21594;BME280;10959;51.328;7.322;2022-08-19T01:50:03;98527.66;;;20.30;71.57
21594;BME280;10959;51.328;7.322;2022-08-19T01:52:30;98519.91;;;20.26;71.45
21594;BME280;10959;51.328;7.322;2022-08-19T01:54:59;98519.19;;;20.24;71.32
21594;BME280;10959;51.328;7.322;2022-08-19T01:57:25;98512.28;;;20.19;71.85
21594;BME280;10959;51.328;7.322;2022-08-19T01:59:52;98512.28;;;20.19;71.74
21594;BME280;10959;51.328;7.322;2022-08-19T02:02:19;98510.56;;;20.18;72.11
21594;BME280;10959;51.328;7.322;2022-08-19T02:04:45;98507.81;;;20.18;72.38
21594;BME280;10959;51.328;7.322;2022-08-19T02:07:13;98518.75;;;20.18;71.75
21594;BME280;10959;51.328;7.322;2022-08-19T02:09:39;98506.97;;;20.18;72.04
21594;BME280;10959;51.328;7.322;2022-08-19T02:12:07;98509.56;;;20.19;71.96
21594;BME280;10959;51.328;7.322;2022-08-19T02:14:34;98510.56;;;20.18;72.03
21594;BME280;10959;51.328;7.322;2022-08-19T02:17:01;98504.09;;;20.19;71.50
21594;BME280;10959;51.328;7.322;2022-08-19T02:19:28;98511.28;;;20.20;72.14
21594;BME280;10959;51.328;7.322;2022-08-19T02:21:57;98514.72;;;20.23;71.69
21594;BME280;10959;51.328;7.322;2022-08-19T02:24:24;98515.59;;;20.23;71.48
21594;BME280;10959;51.328;7.322;2022-08-19T02:26:52;98514.16;;;20.19;71.89
21594;BME280;10959;51.328;7.322;2022-08-19T02:29:20;98518.75;;;20.18;71.38
21594;BME280;10959;51.328;7.322;2022-08-19T02:31:46;98519.06;;;20.15;71.29
21594;BME280;10959;51.328;7.322;2022-08-19T02:34:13;98517.16;;;20.16;71.40
21594;BME280;10959;51.328;7.322;2022-08-19T02:36:39;98518.59;;;20.10;71.18
21594;BME280;10959;51.328;7.322;2022-08-19T02:39:06;98517.63;;;20.11;71.42
21594;BME280;10959;51.328;7.322;2022-08-19T02:41:32;98516.16;;;20.07;71.87
21594;BME280;10959;51.328;7.322;2022-08-19T02:44:01;98513.72;;;20.04;71.47
21594;BME280;10959;51.328;7.322;2022-08-19T02:46:32;98515.03;;;20.00;71.82
21594;BME280;10959;51.328;7.322;2022-08-19T02:49:01;98514.31;;;19.98;71.68
21594;BME280;10959;51.328;7.322;2022-08-19T02:51:30;98518.75;;;19.99;72.31
21594;BME280;10959;51.328;7.322;2022-08-19T02:53:57;98520.78;;;19.97;72.63
21594;BME280;10959;51.328;7.322;2022-08-19T02:56:25;98513.88;;;19.93;72.63
21594;BME280;10959;51.328;7.322;2022-08-19T02:58:53;98514.72;;;19.93;72.73
21594;BME280;10959;51.328;7.322;2022-08-19T03:01:22;98518.91;;;19.97;72.55
21594;BME280;10959;51.328;7.322;2022-08-19T03:03:50;98517.03;;;19.98;73.02
21594;BME280;10959;51.328;7.322;2022-08-19T03:06:18;98522.50;;;19.98;72.23
21594;BME280;10959;51.328;7.322;2022-08-19T03:08:46;98526.94;;;19.99;72.23
21594;BME280;10959;51.328;7.322;2022-08-19T03:11:15;98527.97;;;19.98;72.75
21594;BME280;10959;51.328;7.322;2022-08-19T03:13:42;98519.78;;;19.98;72.62
21594;BME280;10959;51.328;7.322;2022-08-19T03:16:10;98510.13;;;19.94;72.90
21594;BME280;10959;51.328;7.322;2022-08-19T03:18:37;98505.53;;;19.94;72.86
21594;BME280;10959;51.328;7.322;2022-08-19T03:21:05;98508.09;;;19.96;72.63
21594;BME280;10959;51.328;7.322;2022-08-19T03:23:32;98506.81;;;19.90;73.60
21594;BME280;10959;51.328;7.322;2022-08-19T03:25:59;98515.91;;;19.91;73.38
21594;BME280;10959;51.328;7.322;2022-08-19T03:28:30;98516.16;;;19.88;73.26
21594;BME280;10959;51.328;7.322;2022-08-19T03:30:59;98512.13;;;19.92;72.77
21594;BME280;10959;51.328;7.322;2022-08-19T03:33:26;98519.63;;;19.90;73.20
21594;BME280;10959;51.328;7.322;2022-08-19T03:36:06;98520.84;;;19.66;73.50
21594;BME280;10959;51.328;7.322;2022-08-19T03:38:34;98515.59;;;19.84;73.21
21594;BME280;10959;51.328;7.322;2022-08-19T03:41:03;98521.19;;;19.82;73.45
21594;BME280;10959;51.328;7.322;2022-08-19T03:43:32;98525.94;;;19.80;72.87
21594;BME280;10959;51.328;7.322;2022-08-19T03:46:00;98519.59;;;19.80;72.96
21594;BME280;10959;51.328;7.322;2022-08-19T03:48:27;98518.75;;;19.79;72.72
21594;BME280;10959;51.328;7.322;2022-08-19T03:50:55;98511.53;;;19.78;72.85
21594;BME280;10959;51.328;7.322;2022-08-19T03:53:25;98518.75;;;19.79;73.08
21594;BME280;10959;51.328;7.322;2022-08-19T03:55:52;98522.44;;;19.78;72.90
21594;BME280;10959;51.328;7.322;2022-08-19T03:58:18;98528.66;;;19.80;73.09
21594;BME280;10959;51.328;7.322;2022-08-19T04:00:45;98523.34;;;19.79;72.81
21594;BME280;10959;51.328;7.322;2022-08-19T04:03:11;98526.19;;;19.77;72.91
21594;BME280;10959;51.328;7.322;2022-08-19T04:05:38;98516.03;;;19.79;73.48
21594;BME280;10959;51.328;7.322;2022-08-19T04:08:04;98531.66;;;19.77;73.17
21594;BME280;10959;51.328;7.322;2022-08-19T04:10:35;98529.50;;;19.71;73.42
21594;BME280;10959;51.328;7.322;2022-08-19T04:13:02;98536.00;;;19.80;72.87
21594;BME280;10959;51.328;7.322;2022-08-19T04:15:29;98537.09;;;19.77;72.98
21594;BME280;10959;51.328;7.322;2022-08-19T04:17:59;98537.09;;;19.77;73.30
21594;BME280;10959;51.328;7.322;2022-08-19T04:20:25;98522.75;;;19.75;73.26
21594;BME280;10959;51.328;7.322;2022-08-19T04:22:52;98527.22;;;19.76;73.36
21594;BME280;10959;51.328;7.322;2022-08-19T04:25:18;98526.47;;;19.74;73.04
21594;BME280;10959;51.328;7.322;2022-08-19T04:27:46;98525.03;;;19.70;73.23
21594;BME280;10959;51.328;7.322;2022-08-19T04:30:14;98530.63;;;19.68;73.72
21594;BME280;10959;51.328;7.322;2022-08-19T04:32:41;98541.41;;;19.70;73.67
21594;BME280;10959;51.328;7.322;2022-08-19T04:35:09;98547.75;;;19.71;73.51
21594;BME280;10959;51.328;7.322;2022-08-19T04:37:35;98544.16;;;19.70;73.55
21594;BME280;10959;51.328;7.322;2022-08-19T04:40:05;98552.06;;;19.73;73.15
21594;BME280;10959;51.328;7.322;2022-08-19T04:42:50;98557.53;;;19.73;73.53
21594;BME280;10959;51.328;7.322;2022-08-19T04:45:17;98548.03;;;19.77;73.98
21594;BME280;10959;51.328;7.322;2022-08-19T04:47:43;98548.91;;;19.78;74.10
21594;BME280;10959;51.328;7.322;2022-08-19T04:50:11;98543.47;;;19.78;74.09
21594;BME280;10959;51.328;7.322;2022-08-19T04:52:38;98547.53;;;19.83;74.16
21594;BME280;10959;51.328;7.322;2022-08-19T04:55:08;98559.88;;;19.88;73.93
21594;BME280;10959;51.328;7.322;2022-08-19T04:57:35;98555.28;;;19.88;73.93
21594;BME280;10959;51.328;7.322;2022-08-19T05:00:08;98558.72;;;19.90;74.64
21594;BME280;10959;51.328;7.322;2022-08-19T05:02:34;98563.06;;;19.93;74.08
21594;BME280;10959;51.328;7.322;2022-08-19T05:05:03;98568.22;;;19.96;74.37
21594;BME280;10959;51.328;7.322;2022-08-19T05:07:31;98558.44;;;19.93;74.39
21594;BME280;10959;51.328;7.322;2022-08-19T05:09:58;98559.31;;;19.94;73.68
21594;BME280;10959;51.328;7.322;2022-08-19T05:12:25;98559.31;;;19.94;73.90
21594;BME280;10959;51.328;7.322;2022-08-19T05:14:52;98562.78;;;19.96;73.67
21594;BME280;10959;51.328;7.322;2022-08-19T05:17:20;98559.59;;;20.00;73.81
21594;BME280;10959;51.328;7.322;2022-08-19T05:19:47;98558.75;;;20.00;73.92
21594;BME280;10959;51.328;7.322;2022-08-19T05:22:31;98559.34;;;20.03;74.37
21594;BME280;10959;51.328;7.322;2022-08-19T05:25:02;98567.81;;;20.10;74.26
21594;BME280;10959;51.328;7.322;2022-08-19T05:27:29;98575.72;;;20.13;74.34
21594;BME280;10959;51.328;7.322;2022-08-19T05:29:56;98577.16;;;20.17;74.01
21594;BME280;10959;51.328;7.322;2022-08-19T05:32:24;98572.84;;;20.25;73.78
21594;BME280;10959;51.328;7.322;2022-08-19T05:34:51;98572.84;;;20.25;74.19
21594;BME280;10959;51.328;7.322;2022-08-19T05:37:17;98567.97;;;20.28;73.55
21594;BME280;10959;51.328;7.322;2022-08-19T05:39:44;98572.31;;;20.31;73.76
21594;BME280;10959;51.328;7.322;2022-08-19T05:42:11;98572.00;;;20.34;73.73
21594;BME280;10959;51.328;7.322;2022-08-19T05:44:41;98575.75;;;20.33;73.82
21594;BME280;10959;51.328;7.322;2022-08-19T05:47:10;98577.47;;;20.34;73.25
21594;BME280;10959;51.328;7.322;2022-08-19T05:49:38;98571.16;;;20.33;73.76
21594;BME280;10959;51.328;7.322;2022-08-19T05:52:07;98571.72;;;20.37;73.90
21594;BME280;10959;51.328;7.322;2022-08-19T05:54:36;98577.34;;;20.35;73.67
21594;BME280;10959;51.328;7.322;2022-08-19T05:57:05;98572.88;;;20.34;74.10
21594;BME280;10959;51.328;7.322;2022-08-19T05:59:32;98573.59;;;20.36;73.80
21594;BME280;10959;51.328;7.322;2022-08-19T06:02:01;98567.97;;;20.38;74.20
21594;BME280;10959;51.328;7.322;2022-08-19T06:04:27;98573.16;;;20.41;73.45
21594;BME280;10959;51.328;7.322;2022-08-19T06:06:56;98574.59;;;20.45;73.04
21594;BME280;10959;51.328;7.322;2022-08-19T06:09:23;98568.84;;;20.48;73.57
21594;BME280;10959;51.328;7.322;2022-08-19T06:11:51;98569.97;;;20.55;73.63
21594;BME280;10959;51.328;7.322;2022-08-19T06:14:21;98569.69;;;20.59;73.30
21594;BME280;10959;51.328;7.322;2022-08-19T06:16:49;98565.94;;;20.60;73.08
21594;BME280;10959;51.328;7.322;2022-08-19T06:19:19;98570.56;;;20.69;73.65
21594;BME280;10959;51.328;7.322;2022-08-19T06:21:48;98567.97;;;20.77;73.67
21594;BME280;10959;51.328;7.322;2022-08-19T06:24:19;98573.13;;;20.80;73.83
21594;BME280;10959;51.328;7.322;2022-08-19T06:26:48;98566.78;;;20.89;73.81
21594;BME280;10959;51.328;7.322;2022-08-19T06:29:17;98568.53;;;20.91;73.90
21594;BME280;10959;51.328;7.322;2022-08-19T06:31:46;98569.34;;;21.01;73.48
21594;BME280;10959;51.328;7.322;2022-08-19T06:34:15;98568.28;;;21.12;73.34
21594;BME280;10959;51.328;7.322;2022-08-19T06:36:44;98577.22;;;21.23;72.99
21594;BME280;10959;51.328;7.322;2022-08-19T06:39:13;98573.56;;;21.33;72.75
21594;BME280;10959;51.328;7.322;2022-08-19T06:41:43;98578.13;;;21.42;72.44
21594;BME280;10959;51.328;7.322;2022-08-19T06:44:10;98578.38;;;21.49;72.54
21594;BME280;10959;51.328;7.322;2022-08-19T06:46:37;98581.09;;;21.58;72.69
21594;BME280;10959;51.328;7.322;2022-08-19T06:49:05;98577.75;;;21.65;72.46
21594;BME280;10959;51.328;7.322;2022-08-19T06:51:35;98583.63;;;21.70;72.61
21594;BME280;10959;51.328;7.322;2022-08-19T06:54:02;98584.81;;;21.67;72.59
21594;BME280;10959;51.328;7.322;2022-08-19T06:56:31;98584.34;;;21.72;72.45
21594;BME280;10959;51.328;7.322;2022-08-19T06:59:00;98592.97;;;21.77;72.96
21594;BME280;10959;51.328;7.322;2022-08-19T07:01:27;98582.44;;;21.82;72.57
21594;BME280;10959;51.328;7.322;2022-08-19T07:03:53;98582.66;;;21.89;72.11
21594;BME280;10959;51.328;7.322;2022-08-19T07:06:20;98589.72;;;21.91;72.11
21594;BME280;10959;51.328;7.322;2022-08-19T07:08:47;98591.13;;;21.96;72.11
21594;BME280;10959;51.328;7.322;2022-08-19T07:11:16;98589.09;;;21.98;72.04
21594;BME280;10959;51.328;7.322;2022-08-19T07:13:44;98591.94;;;22.06;71.71
21594;BME280;10959;51.328;7.322;2022-08-19T07:16:15;98589.59;;;22.11;71.44
21594;BME280;10959;51.328;7.322;2022-08-19T07:18:42;98594.13;;;22.20;71.46
21594;BME280;10959;51.328;7.322;2022-08-19T07:21:11;98595.22;;;22.27;71.27
21594;BME280;10959;51.328;7.322;2022-08-19T07:23:38;98600.84;;;22.36;71.24
21594;BME280;10959;51.328;7.322;2022-08-19T07:26:06;98601.09;;;22.42;71.12
21594;BME280;10959;51.328;7.322;2022-08-19T07:28:33;98602.66;;;22.45;71.45
21594;BME280;10959;51.328;7.322;2022-08-19T07:31:00;98610.94;;;22.53;71.52
21594;BME280;10959;51.328;7.322;2022-08-19T07:33:30;98602.25;;;22.58;70.82
21594;BME280;10959;51.328;7.322;2022-08-19T07:35:57;98609.00;;;22.64;70.21
21594;BME280;10959;51.328;7.322;2022-08-19T07:38:24;98601.84;;;22.71;70.15
21594;BME280;10959;51.328;7.322;2022-08-19T07:40:51;98609.28;;;22.78;70.81
21594;BME280;10959;51.328;7.322;2022-08-19T07:43:19;98618.13;;;22.90;69.96
21594;BME280;10959;51.328;7.322;2022-08-19T07:45:48;98619.75;;;23.01;70.07
21594;BME280;10959;51.328;7.322;2022-08-19T07:48:14;98621.09;;;23.15;69.09
21594;BME280;10959;51.328;7.322;2022-08-19T07:50:42;98616.00;;;23.28;68.87
21594;BME280;10959;51.328;7.322;2022-08-19T07:53:09;98622.25;;;23.39;69.84
21594;BME280;10959;51.328;7.322;2022-08-19T07:55:36;98628.19;;;23.52;69.40
21594;BME280;10959;51.328;7.322;2022-08-19T07:58:03;98628.25;;;23.69;68.68
21594;BME280;10959;51.328;7.322;2022-08-19T08:00:30;98639.13;;;23.78;68.83
21594;BME280;10959;51.328;7.322;2022-08-19T08:02:56;98639.03;;;23.88;68.81
21594;BME280;10959;51.328;7.322;2022-08-19T08:05:23;98645.25;;;23.98;68.53
21594;BME280;10959;51.328;7.322;2022-08-19T08:08:09;98648.72;;;24.09;68.05
21594;BME280;10959;51.328;7.322;2022-08-19T08:11:02;98652.53;;;24.16;67.49
21594;BME280;10959;51.328;7.322;2022-08-19T08:13:29;98651.19;;;24.28;67.15
21594;BME280;10959;51.328;7.322;2022-08-19T08:15:55;98645.72;;;24.45;67.87
21594;BME280;10959;51.328;7.322;2022-08-19T08:18:23;98658.84;;;24.59;67.16
21594;BME280;10959;51.328;7.322;2022-08-19T08:20:49;98659.22;;;24.73;67.00
21594;BME280;10959;51.328;7.322;2022-08-19T08:23:17;98662.31;;;24.70;65.83
21594;BME280;10959;51.328;7.322;2022-08-19T08:25:51;98661.94;;;24.48;65.79
21594;BME280;10959;51.328;7.322;2022-08-19T08:28:19;98654.47;;;24.32;65.87
21594;BME280;10959;51.328;7.322;2022-08-19T08:30:47;98662.22;;;24.28;66.58
21594;BME280;10959;51.328;7.322;2022-08-19T08:33:14;98665.59;;;24.14;66.90
21594;BME280;10959;51.328;7.322;2022-08-19T08:35:43;98661.50;;;24.18;67.22
21594;BME280;10959;51.328;7.322;2022-08-19T08:38:11;98656.03;;;24.35;67.60
21594;BME280;10959;51.328;7.322;2022-08-19T08:40:44;98657.47;;;24.55;67.22
21594;BME280;10959;51.328;7.322;2022-08-19T08:43:20;98667.47;;;24.64;66.32
21594;BME280;10959;51.328;7.322;2022-08-19T08:45:52;98659.41;;;24.96;66.52
21594;BME280;10959;51.328;7.322;2022-08-19T08:48:24;98666.13;;;25.18;64.63
21594;BME280;10959;51.328;7.322;2022-08-19T08:50:52;98658.00;;;25.25;65.62
21594;BME280;10959;51.328;7.322;2022-08-19T08:53:21;98661.09;;;25.46;65.66
21594;BME280;10959;51.328;7.322;2022-08-19T08:55:49;98654.38;;;25.57;63.99
21594;BME280;10959;51.328;7.322;2022-08-19T08:58:20;98648.31;;;25.62;63.66
21594;BME280;10959;51.328;7.322;2022-08-19T09:00:50;98658.34;;;25.55;60.81
21594;BME280;10959;51.328;7.322;2022-08-19T09:03:19;98650.94;;;25.30;61.13
21594;BME280;10959;51.328;7.322;2022-08-19T09:05:54;98657.66;;;25.28;61.76
21594;BME280;10959;51.328;7.322;2022-08-19T09:08:30;98651.63;;;25.41;62.58
21594;BME280;10959;51.328;7.322;2022-08-19T09:11:06;98664.38;;;25.58;63.10
21594;BME280;10959;51.328;7.322;2022-08-19T09:13:41;98663.25;;;25.84;62.98
21594;BME280;10959;51.328;7.322;2022-08-19T09:16:15;98664.09;;;25.93;61.55
21594;BME280;10959;51.328;7.322;2022-08-19T09:18:44;98663.91;;;25.94;61.70
21594;BME280;10959;51.328;7.322;2022-08-19T09:21:12;98665.09;;;26.08;61.15
21594;BME280;10959;51.328;7.322;2022-08-19T09:23:39;98660.22;;;26.18;61.36
21594;BME280;10959;51.328;7.322;2022-08-19T09:26:12;98666.50;;;25.87;60.22
21594;BME280;10959;51.328;7.322;2022-08-19T09:28:40;98666.47;;;25.96;59.53
21594;BME280;10959;51.328;7.322;2022-08-19T09:31:08;98649.22;;;26.02;58.97
21594;BME280;10959;51.328;7.322;2022-08-19T09:33:35;98663.16;;;26.17;58.03
21594;BME280;10959;51.328;7.322;2022-08-19T09:36:07;98661.50;;;25.91;59.07
21594;BME280;10959;51.328;7.322;2022-08-19T09:38:36;98660.16;;;25.79;59.12
21594;BME280;10959;51.328;7.322;2022-08-19T09:41:04;98669.47;;;25.78;58.54
21594;BME280;10959;51.328;7.322;2022-08-19T09:43:33;98654.66;;;25.79;58.71
21594;BME280;10959;51.328;7.322;2022-08-19T09:46:02;98663.25;;;25.84;59.24
21594;BME280;10959;51.328;7.322;2022-08-19T09:48:30;98660.41;;;26.09;57.68
21594;BME280;10959;51.328;7.322;2022-08-19T09:51:02;98649.69;;;25.66;56.90
21594;BME280;10959;51.328;7.322;2022-08-19T09:53:29;98653.69;;;25.55;58.66
21594;BME280;10959;51.328;7.322;2022-08-19T09:55:56;98652.59;;;25.81;58.56
21594;BME280;10959;51.328;7.322;2022-08-19T09:58:22;98661.53;;;26.31;58.06
21594;BME280;10959;51.328;7.322;2022-08-19T10:00:54;98659.81;;;26.84;55.06
21594;BME280;10959;51.328;7.322;2022-08-19T10:03:21;98658.16;;;26.98;53.86
21594;BME280;10959;51.328;7.322;2022-08-19T10:05:47;98662.22;;;26.56;53.73
21594;BME280;10959;51.328;7.322;2022-08-19T10:08:19;98659.00;;;26.21;55.04
21594;BME280;10959;51.328;7.322;2022-08-19T10:10:47;98660.41;;;26.09;56.84
21594;BME280;10959;51.328;7.322;2022-08-19T10:13:16;98650.97;;;26.03;56.65
21594;BME280;10959;51.328;7.322;2022-08-19T10:15:43;98663.69;;;26.12;56.08
21594;BME280;10959;51.328;7.322;2022-08-19T10:18:11;98655.81;;;26.32;54.65
21594;BME280;10959;51.328;7.322;2022-08-19T10:20:38;98665.59;;;26.66;54.09
21594;BME280;10959;51.328;7.322;2022-08-19T10:23:06;98655.13;;;26.85;52.61
21594;BME280;10959;51.328;7.322;2022-08-19T10:25:33;98649.63;;;27.08;52.88
21594;BME280;10959;51.328;7.322;2022-08-19T10:28:00;98654.38;;;27.37;53.06
21594;BME280;10959;51.328;7.322;2022-08-19T10:30:26;98653.88;;;27.34;52.58
21594;BME280;10959;51.328;7.322;2022-08-19T10:32:54;98656.47;;;27.12;52.76
21594;BME280;10959;51.328;7.322;2022-08-19T10:35:22;98656.81;;;26.94;53.39
21594;BME280;10959;51.328;7.322;2022-08-19T10:37:50;98656.38;;;27.05;53.19
21594;BME280;10959;51.328;7.322;2022-08-19T10:40:16;98654.38;;;27.37;53.75
21594;BME280;10959;51.328;7.322;2022-08-19T10:42:43;98649.44;;;27.63;51.16
21594;BME280;10959;51.328;7.322;2022-08-19T10:45:10;98653.53;;;27.82;49.50
21594;BME280;10959;51.328;7.322;2022-08-19T10:47:36;98651.72;;;27.89;48.88
21594;BME280;10959;51.328;7.322;2022-08-19T10:50:04;98650.69;;;27.90;48.31
21594;BME280;10959;51.328;7.322;2022-08-19T10:52:49;98648.38;;;27.93;48.45
21594;BME280;10959;51.328;7.322;2022-08-19T10:55:19;98653.66;;;28.03;49.52
21594;BME280;10959;51.328;7.322;2022-08-19T10:58:04;98651.53;;;27.46;50.27
21594;BME280;10959;51.328;7.322;2022-08-19T11:00:35;98655.34;;;27.06;51.90
21594;BME280;10959;51.328;7.322;2022-08-19T11:03:02;98657.72;;;26.86;52.77
21594;BME280;10959;51.328;7.322;2022-08-19T11:05:28;98654.16;;;26.78;52.80
21594;BME280;10959;51.328;7.322;2022-08-19T11:07:57;98649.06;;;27.13;52.81
21594;BME280;10959;51.328;7.322;2022-08-19T11:10:23;98650.28;;;27.48;52.06
21594;BME280;10959;51.328;7.322;2022-08-19T11:12:50;98656.13;;;27.68;50.10
21594;BME280;10959;51.328;7.322;2022-08-19T11:15:19;98644.69;;;27.71;49.56
21594;BME280;10959;51.328;7.322;2022-08-19T11:17:45;98649.81;;;27.45;50.19
21594;BME280;10959;51.328;7.322;2022-08-19T11:20:14;98646.44;;;27.34;50.12
21594;BME280;10959;51.328;7.322;2022-08-19T11:22:41;98638.97;;;27.58;50.23
21594;BME280;10959;51.328;7.322;2022-08-19T11:25:10;98638.94;;;27.88;48.67
21594;BME280;10959;51.328;7.322;2022-08-19T11:27:39;98639.72;;;28.12;47.98
21594;BME280;10959;51.328;7.322;2022-08-19T11:30:09;98639.31;;;27.85;47.47
21594;BME280;10959;51.328;7.322;2022-08-19T11:32:36;98641.53;;;27.59;49.04
21594;BME280;10959;51.328;7.322;2022-08-19T11:35:03;98641.09;;;27.33;49.60
21594;BME280;10959;51.328;7.322;2022-08-19T11:37:32;98642.31;;;27.30;50.21
21594;BME280;10959;51.328;7.322;2022-08-19T11:40:04;98637.41;;;27.40;50.39
21594;BME280;10959;51.328;7.322;2022-08-19T11:42:33;98640.47;;;27.46;51.08
21594;BME280;10959;51.328;7.322;2022-08-19T11:45:17;98634.53;;;27.11;51.30
21594;BME280;10959;51.328;7.322;2022-08-19T11:47:43;98627.75;;;26.98;51.39
21594;BME280;10959;51.328;7.322;2022-08-19T11:50:11;98633.13;;;27.15;51.69
21594;BME280;10959;51.328;7.322;2022-08-19T11:52:37;98630.53;;;27.36;50.81
21594;BME280;10959;51.328;7.322;2022-08-19T11:55:05;98631.50;;;27.73;49.47
21594;BME280;10959;51.328;7.322;2022-08-19T11:57:33;98625.41;;;27.63;49.35
21594;BME280;10959;51.328;7.322;2022-08-19T11:59:59;98620.25;;;27.60;48.65
21594;BME280;10959;51.328;7.322;2022-08-19T12:02:26;98623.50;;;27.79;48.58
21594;BME280;10959;51.328;7.322;2022-08-19T12:04:53;98629.78;;;27.42;47.74
21594;BME280;10959;51.328;7.322;2022-08-19T12:07:19;98633.22;;;27.45;47.89
21594;BME280;10959;51.328;7.322;2022-08-19T12:09:46;98624.00;;;27.29;48.70
21594;BME280;10959;51.328;7.322;2022-08-19T12:12:13;98625.13;;;27.20;48.65
21594;BME280;10959;51.328;7.322;2022-08-19T12:14:40;98622.72;;;27.40;49.43
21594;BME280;10959;51.328;7.322;2022-08-19T12:17:07;98621.03;;;27.54;48.75
21594;BME280;10959;51.328;7.322;2022-08-19T12:19:36;98624.38;;;27.26;49.47
21594;BME280;10959;51.328;7.322;2022-08-19T12:22:04;98619.75;;;27.03;50.85
21594;BME280;10959;51.328;7.322;2022-08-19T12:24:33;98627.38;;;27.01;51.23
21594;BME280;10959;51.328;7.322;2022-08-19T12:26:59;98628.16;;;27.10;50.83
21594;BME280;10959;51.328;7.322;2022-08-19T12:29:27;98623.56;;;27.40;50.12
21594;BME280;10959;51.328;7.322;2022-08-19T12:31:56;98625.88;;;27.67;49.71
21594;BME280;10959;51.328;7.322;2022-08-19T12:34:26;98621.38;;;27.81;48.42
21594;BME280;10959;51.328;7.322;2022-08-19T12:36:55;98612.13;;;27.73;48.64
21594;BME280;10959;51.328;7.322;2022-08-19T12:39:21;98620.25;;;27.60;48.73
21594;BME280;10959;51.328;7.322;2022-08-19T12:41:48;98618.34;;;27.46;48.81
21594;BME280;10959;51.328;7.322;2022-08-19T12:44:14;98613.69;;;27.23;49.40
21594;BME280;10959;51.328;7.322;2022-08-19T12:46:41;98611.38;;;27.12;49.22
21594;BME280;10959;51.328;7.322;2022-08-19T12:49:09;98616.47;;;26.85;49.55
21594;BME280;10959;51.328;7.322;2022-08-19T12:51:36;98621.00;;;26.78;49.89
21594;BME280;10959;51.328;7.322;2022-08-19T12:54:03;98611.06;;;26.92;49.81
21594;BME280;10959;51.328;7.322;2022-08-19T12:56:30;98607.59;;;27.13;49.87
21594;BME280;10959;51.328;7.322;2022-08-19T12:59:01;98600.19;;;27.28;47.87
21594;BME280;10959;51.328;7.322;2022-08-19T13:01:27;98598.56;;;27.34;48.50
21594;BME280;10959;51.328;7.322;2022-08-19T13:03:58;98600.78;;;27.38;46.14
21594;BME280;10959;51.328;7.322;2022-08-19T13:06:26;98594.50;;;27.45;46.91